Agoura, California
Current Conditions -  °F | °C
As of 7:51 PM on Sunday 21 Dec 2014 (Local Time) from KVNY Reporting Station
Clear Clear  
Wind Chill: 65°   Ceiling: Unl
Heat Index: 65°   Visibility: 10mi
Dew Point: 46°   Wind: 24mph
Humidity: 50%   Direction: 340°NNW
Pressure: 30.05"   Gusts: NA
Location:  34.1232°N, 118.77°W
Report Text: KVNY 220351Z 34021KT 10SM CLR 18/08 A3005 RMK AO2 PK WND 01031/0324 SLP172 T01830078
Loading
Personal Weather Stations






























Interactive Weather Map New forecast layout! Learn more

10-Day Weather Forecast

Advertisements
Track Severe Weather on mobile